sensor_id;sensor_type;location;lat;lon;timestamp;P1;durP1;ratioP1;P2;durP2;ratioP2
14923;SDS011;7554;43.600;1.480;2024-03-25T00:02:16;5.80;;;1.97;;
14923;SDS011;7554;43.600;1.480;2024-03-25T00:04:44;3.50;;;1.87;;
14923;SDS011;7554;43.600;1.480;2024-03-25T00:07:10;4.07;;;2.10;;
14923;SDS011;7554;43.600;1.480;2024-03-25T00:09:38;5.67;;;2.63;;
14923;SDS011;7554;43.600;1.480;2024-03-25T00:12:04;5.13;;;2.30;;
14923;SDS011;7554;43.600;1.480;2024-03-25T00:14:32;7.57;;;2.43;;
14923;SDS011;7554;43.600;1.480;2024-03-25T00:17:00;5.00;;;2.10;;
14923;SDS011;7554;43.600;1.480;2024-03-25T00:19:27;4.83;;;2.17;;
14923;SDS011;7554;43.600;1.480;2024-03-25T00:21:54;6.30;;;2.30;;
14923;SDS011;7554;43.600;1.480;2024-03-25T00:24:21;7.53;;;2.40;;
14923;SDS011;7554;43.600;1.480;2024-03-25T00:26:48;3.47;;;2.03;;
14923;SDS011;7554;43.600;1.480;2024-03-25T00:29:15;4.80;;;2.33;;
14923;SDS011;7554;43.600;1.480;2024-03-25T00:31:42;4.47;;;2.17;;
14923;SDS011;7554;43.600;1.480;2024-03-25T00:34:12;5.87;;;2.20;;
14923;SDS011;7554;43.600;1.480;2024-03-25T00:36:38;4.93;;;2.27;;
14923;SDS011;7554;43.600;1.480;2024-03-25T00:39:06;6.63;;;2.77;;
14923;SDS011;7554;43.600;1.480;2024-03-25T00:41:33;4.67;;;2.30;;
14923;SDS011;7554;43.600;1.480;2024-03-25T00:44:01;3.67;;;1.83;;
14923;SDS011;7554;43.600;1.480;2024-03-25T00:46:27;4.17;;;1.97;;
14923;SDS011;7554;43.600;1.480;2024-03-25T00:48:55;4.83;;;2.00;;
14923;SDS011;7554;43.600;1.480;2024-03-25T00:51:23;7.13;;;2.37;;
14923;SDS011;7554;43.600;1.480;2024-03-25T00:53:50;4.10;;;2.03;;
14923;SDS011;7554;43.600;1.480;2024-03-25T00:56:17;5.47;;;1.87;;
14923;SDS011;7554;43.600;1.480;2024-03-25T00:58:45;4.63;;;1.73;;
14923;SDS011;7554;43.600;1.480;2024-03-25T01:01:11;4.70;;;1.90;;
14923;SDS011;7554;43.600;1.480;2024-03-25T01:03:39;5.13;;;1.53;;
14923;SDS011;7554;43.600;1.480;2024-03-25T01:06:05;4.93;;;1.80;;
14923;SDS011;7554;43.600;1.480;2024-03-25T01:08:34;3.93;;;1.90;;
14923;SDS011;7554;43.600;1.480;2024-03-25T01:11:01;4.73;;;1.80;;
14923;SDS011;7554;43.600;1.480;2024-03-25T01:13:28;5.13;;;1.63;;
14923;SDS011;7554;43.600;1.480;2024-03-25T01:15:54;4.30;;;1.70;;
14923;SDS011;7554;43.600;1.480;2024-03-25T01:18:22;4.63;;;2.03;;
14923;SDS011;7554;43.600;1.480;2024-03-25T01:20:48;3.27;;;1.90;;
14923;SDS011;7554;43.600;1.480;2024-03-25T01:23:16;4.23;;;1.80;;
14923;SDS011;7554;43.600;1.480;2024-03-25T01:25:44;5.20;;;2.23;;
14923;SDS011;7554;43.600;1.480;2024-03-25T01:28:11;6.50;;;2.60;;
14923;SDS011;7554;43.600;1.480;2024-03-25T01:30:38;5.20;;;2.37;;
14923;SDS011;7554;43.600;1.480;2024-03-25T01:33:05;5.20;;;2.00;;
14923;SDS011;7554;43.600;1.480;2024-03-25T01:35:31;2.77;;;2.00;;
14923;SDS011;7554;43.600;1.480;2024-03-25T01:37:59;5.30;;;2.47;;
14923;SDS011;7554;43.600;1.480;2024-03-25T01:40:25;5.03;;;2.60;;
14923;SDS011;7554;43.600;1.480;2024-03-25T01:42:57;5.00;;;2.20;;
14923;SDS011;7554;43.600;1.480;2024-03-25T01:45:24;7.17;;;2.73;;
14923;SDS011;7554;43.600;1.480;2024-03-25T01:47:51;5.67;;;2.97;;
14923;SDS011;7554;43.600;1.480;2024-03-25T01:50:18;6.57;;;2.20;;
14923;SDS011;7554;43.600;1.480;2024-03-25T01:52:46;4.40;;;2.20;;
14923;SDS011;7554;43.600;1.480;2024-03-25T01:55:14;5.13;;;2.30;;
14923;SDS011;7554;43.600;1.480;2024-03-25T01:57:42;4.73;;;2.47;;
14923;SDS011;7554;43.600;1.480;2024-03-25T02:00:11;2.93;;;1.70;;
14923;SDS011;7554;43.600;1.480;2024-03-25T02:02:41;6.27;;;2.50;;
14923;SDS011;7554;43.600;1.480;2024-03-25T02:05:09;6.00;;;2.00;;
14923;SDS011;7554;43.600;1.480;2024-03-25T02:07:37;5.77;;;2.20;;
14923;SDS011;7554;43.600;1.480;2024-03-25T02:10:06;4.47;;;1.77;;
14923;SDS011;7554;43.600;1.480;2024-03-25T02:12:35;3.60;;;1.80;;
14923;SDS011;7554;43.600;1.480;2024-03-25T02:15:01;3.73;;;1.77;;
14923;SDS011;7554;43.600;1.480;2024-03-25T02:17:31;4.37;;;1.90;;
14923;SDS011;7554;43.600;1.480;2024-03-25T02:19:57;6.10;;;1.97;;
14923;SDS011;7554;43.600;1.480;2024-03-25T02:22:25;6.10;;;1.90;;
14923;SDS011;7554;43.600;1.480;2024-03-25T02:24:52;3.20;;;1.60;;
14923;SDS011;7554;43.600;1.480;2024-03-25T02:27:21;6.27;;;1.63;;
14923;SDS011;7554;43.600;1.480;2024-03-25T02:29:48;8.60;;;2.07;;
14923;SDS011;7554;43.600;1.480;2024-03-25T02:32:15;3.97;;;1.57;;
14923;SDS011;7554;43.600;1.480;2024-03-25T02:34:50;7.67;;;2.10;;
14923;SDS011;7554;43.600;1.480;2024-03-25T02:37:18;5.07;;;1.70;;
14923;SDS011;7554;43.600;1.480;2024-03-25T02:39:44;5.53;;;1.77;;
14923;SDS011;7554;43.600;1.480;2024-03-25T02:42:12;4.57;;;1.67;;
14923;SDS011;7554;43.600;1.480;2024-03-25T02:44:40;4.03;;;1.50;;
14923;SDS011;7554;43.600;1.480;2024-03-25T02:47:08;3.97;;;1.67;;
14923;SDS011;7554;43.600;1.480;2024-03-25T02:49:35;3.30;;;1.63;;
14923;SDS011;7554;43.600;1.480;2024-03-25T02:52:03;4.80;;;1.73;;
14923;SDS011;7554;43.600;1.480;2024-03-25T02:54:30;5.20;;;1.80;;
14923;SDS011;7554;43.600;1.480;2024-03-25T02:56:57;5.40;;;1.93;;
14923;SDS011;7554;43.600;1.480;2024-03-25T02:59:23;4.20;;;1.87;;
14923;SDS011;7554;43.600;1.480;2024-03-25T03:01:52;5.83;;;1.80;;
14923;SDS011;7554;43.600;1.480;2024-03-25T03:04:19;5.90;;;2.07;;
14923;SDS011;7554;43.600;1.480;2024-03-25T03:06:46;4.60;;;1.77;;
14923;SDS011;7554;43.600;1.480;2024-03-25T03:09:13;4.63;;;1.77;;
14923;SDS011;7554;43.600;1.480;2024-03-25T03:11:40;3.77;;;1.60;;
14923;SDS011;7554;43.600;1.480;2024-03-25T03:14:07;5.33;;;1.90;;
14923;SDS011;7554;43.600;1.480;2024-03-25T03:16:34;5.50;;;1.87;;
14923;SDS011;7554;43.600;1.480;2024-03-25T03:19:02;5.00;;;1.83;;
14923;SDS011;7554;43.600;1.480;2024-03-25T03:21:30;5.93;;;1.73;;
14923;SDS011;7554;43.600;1.480;2024-03-25T03:23:56;5.80;;;1.80;;
14923;SDS011;7554;43.600;1.480;2024-03-25T03:26:24;5.73;;;1.80;;
14923;SDS011;7554;43.600;1.480;2024-03-25T03:28:52;5.13;;;2.10;;
14923;SDS011;7554;43.600;1.480;2024-03-25T03:31:19;4.47;;;1.80;;
14923;SDS011;7554;43.600;1.480;2024-03-25T03:33:46;2.53;;;1.50;;
14923;SDS011;7554;43.600;1.480;2024-03-25T03:36:15;3.70;;;1.73;;
14923;SDS011;7554;43.600;1.480;2024-03-25T03:38:42;4.17;;;1.60;;
14923;SDS011;7554;43.600;1.480;2024-03-25T03:41:10;3.77;;;2.00;;
14923;SDS011;7554;43.600;1.480;2024-03-25T03:43:36;5.47;;;1.73;;
14923;SDS011;7554;43.600;1.480;2024-03-25T03:46:04;4.33;;;2.20;;
14923;SDS011;7554;43.600;1.480;2024-03-25T03:48:31;3.53;;;2.10;;
14923;SDS011;7554;43.600;1.480;2024-03-25T03:50:59;6.23;;;2.00;;
14923;SDS011;7554;43.600;1.480;2024-03-25T03:53:26;4.47;;;2.13;;
14923;SDS011;7554;43.600;1.480;2024-03-25T03:55:54;5.93;;;2.20;;
14923;SDS011;7554;43.600;1.480;2024-03-25T03:58:21;5.50;;;2.43;;
14923;SDS011;7554;43.600;1.480;2024-03-25T04:00:48;6.47;;;2.73;;
14923;SDS011;7554;43.600;1.480;2024-03-25T04:03:14;5.07;;;2.23;;
14923;SDS011;7554;43.600;1.480;2024-03-25T04:05:42;4.37;;;2.40;;
14923;SDS011;7554;43.600;1.480;2024-03-25T04:08:08;4.73;;;2.10;;
14923;SDS011;7554;43.600;1.480;2024-03-25T04:10:37;4.27;;;2.40;;
14923;SDS011;7554;43.600;1.480;2024-03-25T04:13:05;3.53;;;2.13;;
14923;SDS011;7554;43.600;1.480;2024-03-25T04:15:33;5.23;;;2.30;;
14923;SDS011;7554;43.600;1.480;2024-03-25T04:17:59;4.07;;;2.07;;
14923;SDS011;7554;43.600;1.480;2024-03-25T04:20:27;5.40;;;2.23;;
14923;SDS011;7554;43.600;1.480;2024-03-25T04:22:54;3.47;;;1.90;;
14923;SDS011;7554;43.600;1.480;2024-03-25T04:25:21;4.57;;;2.10;;
14923;SDS011;7554;43.600;1.480;2024-03-25T04:27:49;4.27;;;1.93;;
14923;SDS011;7554;43.600;1.480;2024-03-25T04:30:16;3.27;;;1.90;;
14923;SDS011;7554;43.600;1.480;2024-03-25T04:32:43;5.73;;;1.70;;
14923;SDS011;7554;43.600;1.480;2024-03-25T04:35:10;5.90;;;1.70;;
14923;SDS011;7554;43.600;1.480;2024-03-25T04:37:38;4.87;;;1.90;;
14923;SDS011;7554;43.600;1.480;2024-03-25T04:40:05;3.93;;;2.00;;
14923;SDS011;7554;43.600;1.480;2024-03-25T04:42:31;6.40;;;1.80;;
14923;SDS011;7554;43.600;1.480;2024-03-25T04:44:59;5.80;;;1.97;;
14923;SDS011;7554;43.600;1.480;2024-03-25T04:47:26;3.80;;;1.63;;
14923;SDS011;7554;43.600;1.480;2024-03-25T04:49:52;5.20;;;1.73;;
14923;SDS011;7554;43.600;1.480;2024-03-25T04:52:18;3.90;;;1.73;;
14923;SDS011;7554;43.600;1.480;2024-03-25T04:54:45;3.13;;;1.70;;
14923;SDS011;7554;43.600;1.480;2024-03-25T04:57:14;3.73;;;1.50;;
14923;SDS011;7554;43.600;1.480;2024-03-25T04:59:40;6.73;;;1.70;;
14923;SDS011;7554;43.600;1.480;2024-03-25T05:02:08;5.27;;;1.97;;
14923;SDS011;7554;43.600;1.480;2024-03-25T05:04:35;3.60;;;1.80;;
14923;SDS011;7554;43.600;1.480;2024-03-25T05:07:01;3.87;;;1.53;;
14923;SDS011;7554;43.600;1.480;2024-03-25T05:09:27;3.33;;;1.53;;
14923;SDS011;7554;43.600;1.480;2024-03-25T05:11:54;5.27;;;2.40;;
14923;SDS011;7554;43.600;1.480;2024-03-25T05:14:20;6.50;;;2.27;;
14923;SDS011;7554;43.600;1.480;2024-03-25T05:16:47;3.63;;;2.07;;
14923;SDS011;7554;43.600;1.480;2024-03-25T05:19:15;4.27;;;2.10;;
14923;SDS011;7554;43.600;1.480;2024-03-25T05:21:41;5.03;;;2.43;;
14923;SDS011;7554;43.600;1.480;2024-03-25T05:24:07;25.90;;;4.93;;
14923;SDS011;7554;43.600;1.480;2024-03-25T05:26:34;4.00;;;2.17;;
14923;SDS011;7554;43.600;1.480;2024-03-25T05:29:00;4.10;;;2.17;;
14923;SDS011;7554;43.600;1.480;2024-03-25T05:31:26;5.30;;;2.43;;
14923;SDS011;7554;43.600;1.480;2024-03-25T05:33:52;19.33;;;6.20;;
14923;SDS011;7554;43.600;1.480;2024-03-25T05:36:20;5.03;;;2.10;;
14923;SDS011;7554;43.600;1.480;2024-03-25T05:38:46;5.73;;;2.20;;
14923;SDS011;7554;43.600;1.480;2024-03-25T05:41:12;5.27;;;2.30;;
14923;SDS011;7554;43.600;1.480;2024-03-25T05:43:39;7.07;;;2.33;;
14923;SDS011;7554;43.600;1.480;2024-03-25T05:46:05;4.80;;;2.37;;
14923;SDS011;7554;43.600;1.480;2024-03-25T05:48:31;7.20;;;2.17;;
14923;SDS011;7554;43.600;1.480;2024-03-25T05:50:58;5.00;;;2.30;;
14923;SDS011;7554;43.600;1.480;2024-03-25T05:53:27;5.13;;;2.33;;
14923;SDS011;7554;43.600;1.480;2024-03-25T05:55:53;6.17;;;2.47;;
14923;SDS011;7554;43.600;1.480;2024-03-25T05:58:19;5.27;;;2.43;;
14923;SDS011;7554;43.600;1.480;2024-03-25T06:00:46;6.93;;;2.37;;
14923;SDS011;7554;43.600;1.480;2024-03-25T06:03:13;4.93;;;2.13;;
14923;SDS011;7554;43.600;1.480;2024-03-25T06:05:39;3.10;;;2.47;;
14923;SDS011;7554;43.600;1.480;2024-03-25T06:08:06;5.80;;;2.10;;
14923;SDS011;7554;43.600;1.480;2024-03-25T06:10:38;5.97;;;2.30;;
14923;SDS011;7554;43.600;1.480;2024-03-25T06:13:04;5.47;;;1.90;;
14923;SDS011;7554;43.600;1.480;2024-03-25T06:15:30;4.53;;;2.20;;
14923;SDS011;7554;43.600;1.480;2024-03-25T06:17:56;7.37;;;1.80;;
14923;SDS011;7554;43.600;1.480;2024-03-25T06:20:22;3.50;;;1.60;;
14923;SDS011;7554;43.600;1.480;2024-03-25T06:22:49;4.27;;;1.27;;
14923;SDS011;7554;43.600;1.480;2024-03-25T06:25:15;3.63;;;1.53;;
14923;SDS011;7554;43.600;1.480;2024-03-25T06:27:43;6.07;;;1.83;;
14923;SDS011;7554;43.600;1.480;2024-03-25T06:30:10;3.27;;;1.80;;
14923;SDS011;7554;43.600;1.480;2024-03-25T06:32:55;3.57;;;1.73;;
14923;SDS011;7554;43.600;1.480;2024-03-25T06:35:42;4.83;;;1.83;;
14923;SDS011;7554;43.600;1.480;2024-03-25T06:38:08;5.33;;;2.20;;
14923;SDS011;7554;43.600;1.480;2024-03-25T06:40:35;4.23;;;1.80;;
14923;SDS011;7554;43.600;1.480;2024-03-25T06:43:02;6.77;;;2.23;;
14923;SDS011;7554;43.600;1.480;2024-03-25T06:45:29;4.83;;;1.93;;
14923;SDS011;7554;43.600;1.480;2024-03-25T06:47:55;5.30;;;2.30;;
14923;SDS011;7554;43.600;1.480;2024-03-25T06:50:22;3.27;;;1.80;;
14923;SDS011;7554;43.600;1.480;2024-03-25T06:52:48;6.10;;;2.10;;
14923;SDS011;7554;43.600;1.480;2024-03-25T06:55:15;6.27;;;1.73;;
14923;SDS011;7554;43.600;1.480;2024-03-25T06:57:41;5.03;;;1.90;;
14923;SDS011;7554;43.600;1.480;2024-03-25T07:00:09;6.53;;;1.80;;
14923;SDS011;7554;43.600;1.480;2024-03-25T07:02:36;4.43;;;1.83;;
14923;SDS011;7554;43.600;1.480;2024-03-25T07:05:03;4.97;;;1.80;;
14923;SDS011;7554;43.600;1.480;2024-03-25T07:07:29;3.50;;;1.67;;
14923;SDS011;7554;43.600;1.480;2024-03-25T07:09:56;7.57;;;1.80;;
14923;SDS011;7554;43.600;1.480;2024-03-25T07:12:22;3.60;;;1.90;;
14923;SDS011;7554;43.600;1.480;2024-03-25T07:14:48;8.43;;;1.90;;
14923;SDS011;7554;43.600;1.480;2024-03-25T07:17:16;6.07;;;2.20;;
14923;SDS011;7554;43.600;1.480;2024-03-25T07:19:42;4.43;;;2.03;;
14923;SDS011;7554;43.600;1.480;2024-03-25T07:22:08;14.47;;;2.80;;
14923;SDS011;7554;43.600;1.480;2024-03-25T07:24:35;4.10;;;1.90;;
14923;SDS011;7554;43.600;1.480;2024-03-25T07:27:01;7.37;;;2.03;;
14923;SDS011;7554;43.600;1.480;2024-03-25T07:29:27;5.17;;;2.00;;
14923;SDS011;7554;43.600;1.480;2024-03-25T07:31:53;4.93;;;1.77;;
14923;SDS011;7554;43.600;1.480;2024-03-25T07:34:21;4.83;;;1.40;;
14923;SDS011;7554;43.600;1.480;2024-03-25T07:36:47;4.00;;;1.77;;
14923;SDS011;7554;43.600;1.480;2024-03-25T07:39:14;4.73;;;1.17;;
14923;SDS011;7554;43.600;1.480;2024-03-25T07:41:40;4.17;;;1.57;;
14923;SDS011;7554;43.600;1.480;2024-03-25T07:44:06;6.57;;;1.53;;
14923;SDS011;7554;43.600;1.480;2024-03-25T07:46:32;6.07;;;1.57;;
14923;SDS011;7554;43.600;1.480;2024-03-25T07:49:01;4.43;;;1.57;;
14923;SDS011;7554;43.600;1.480;2024-03-25T07:51:29;5.93;;;1.60;;
14923;SDS011;7554;43.600;1.480;2024-03-25T07:53:58;6.60;;;1.80;;
14923;SDS011;7554;43.600;1.480;2024-03-25T07:56:35;5.90;;;1.83;;
14923;SDS011;7554;43.600;1.480;2024-03-25T07:59:02;5.87;;;1.60;;
14923;SDS011;7554;43.600;1.480;2024-03-25T08:01:28;3.03;;;1.30;;
14923;SDS011;7554;43.600;1.480;2024-03-25T08:03:54;5.00;;;1.80;;
14923;SDS011;7554;43.600;1.480;2024-03-25T08:06:21;4.10;;;1.50;;
14923;SDS011;7554;43.600;1.480;2024-03-25T08:08:49;3.83;;;1.60;;
14923;SDS011;7554;43.600;1.480;2024-03-25T08:11:15;5.80;;;1.50;;
14923;SDS011;7554;43.600;1.480;2024-03-25T08:13:41;3.07;;;1.40;;
14923;SDS011;7554;43.600;1.480;2024-03-25T08:16:07;3.37;;;1.00;;
14923;SDS011;7554;43.600;1.480;2024-03-25T08:18:34;2.47;;;1.47;;
14923;SDS011;7554;43.600;1.480;2024-03-25T08:21:00;3.13;;;0.97;;
14923;SDS011;7554;43.600;1.480;2024-03-25T08:23:26;2.73;;;1.17;;
14923;SDS011;7554;43.600;1.480;2024-03-25T08:25:54;4.80;;;1.37;;
14923;SDS011;7554;43.600;1.480;2024-03-25T08:28:20;4.73;;;1.03;;
14923;SDS011;7554;43.600;1.480;2024-03-25T08:30:46;2.93;;;0.90;;
14923;SDS011;7554;43.600;1.480;2024-03-25T08:33:13;5.53;;;1.03;;
14923;SDS011;7554;43.600;1.480;2024-03-25T08:35:39;2.57;;;0.80;;
14923;SDS011;7554;43.600;1.480;2024-03-25T08:38:05;2.20;;;0.60;;
14923;SDS011;7554;43.600;1.480;2024-03-25T08:40:32;1.77;;;0.53;;
14923;SDS011;7554;43.600;1.480;2024-03-25T08:42:59;4.70;;;1.30;;
14923;SDS011;7554;43.600;1.480;2024-03-25T08:45:26;2.80;;;1.00;;
14923;SDS011;7554;43.600;1.480;2024-03-25T08:47:55;4.17;;;1.07;;
14923;SDS011;7554;43.600;1.480;2024-03-25T08:50:21;3.97;;;1.00;;
14923;SDS011;7554;43.600;1.480;2024-03-25T08:52:47;5.93;;;1.07;;
14923;SDS011;7554;43.600;1.480;2024-03-25T08:55:14;3.20;;;0.77;;
14923;SDS011;7554;43.600;1.480;2024-03-25T08:57:40;4.43;;;1.10;;
14923;SDS011;7554;43.600;1.480;2024-03-25T09:00:08;3.40;;;1.00;;
14923;SDS011;7554;43.600;1.480;2024-03-25T09:02:35;2.53;;;0.60;;
14923;SDS011;7554;43.600;1.480;2024-03-25T09:05:02;2.63;;;0.90;;
14923;SDS011;7554;43.600;1.480;2024-03-25T09:07:28;2.07;;;0.53;;
14923;SDS011;7554;43.600;1.480;2024-03-25T09:09:54;2.77;;;0.60;;
14923;SDS011;7554;43.600;1.480;2024-03-25T09:12:39;3.23;;;0.70;;
14923;SDS011;7554;43.600;1.480;2024-03-25T09:15:06;3.80;;;0.87;;
14923;SDS011;7554;43.600;1.480;2024-03-25T09:17:34;3.87;;;0.93;;
14923;SDS011;7554;43.600;1.480;2024-03-25T09:20:01;5.13;;;0.70;;
14923;SDS011;7554;43.600;1.480;2024-03-25T09:22:28;1.30;;;0.60;;
14923;SDS011;7554;43.600;1.480;2024-03-25T09:24:54;2.77;;;1.07;;
14923;SDS011;7554;43.600;1.480;2024-03-25T09:27:20;2.70;;;0.80;;
14923;SDS011;7554;43.600;1.480;2024-03-25T09:29:46;3.07;;;0.90;;
14923;SDS011;7554;43.600;1.480;2024-03-25T09:32:14;1.73;;;0.70;;
14923;SDS011;7554;43.600;1.480;2024-03-25T09:34:40;4.43;;;0.80;;
14923;SDS011;7554;43.600;1.480;2024-03-25T09:37:06;2.50;;;0.60;;
14923;SDS011;7554;43.600;1.480;2024-03-25T09:39:33;1.07;;;0.47;;
14923;SDS011;7554;43.600;1.480;2024-03-25T09:41:59;2.80;;;0.70;;
14923;SDS011;7554;43.600;1.480;2024-03-25T09:44:30;2.70;;;0.50;;
14923;SDS011;7554;43.600;1.480;2024-03-25T09:46:57;4.63;;;1.40;;
14923;SDS011;7554;43.600;1.480;2024-03-25T09:49:26;5.03;;;0.80;;
14923;SDS011;7554;43.600;1.480;2024-03-25T09:51:53;2.87;;;0.63;;
14923;SDS011;7554;43.600;1.480;2024-03-25T09:54:20;4.33;;;1.17;;
14923;SDS011;7554;43.600;1.480;2024-03-25T09:56:46;4.23;;;0.90;;
14923;SDS011;7554;43.600;1.480;2024-03-25T09:59:14;2.97;;;0.53;;
14923;SDS011;7554;43.600;1.480;2024-03-25T10:01:41;6.10;;;1.80;;
14923;SDS011;7554;43.600;1.480;2024-03-25T10:04:08;1.97;;;0.60;;
14923;SDS011;7554;43.600;1.480;2024-03-25T10:06:36;2.47;;;0.83;;
14923;SDS011;7554;43.600;1.480;2024-03-25T10:09:05;2.37;;;0.87;;
14923;SDS011;7554;43.600;1.480;2024-03-25T10:11:31;2.00;;;0.97;;
14923;SDS011;7554;43.600;1.480;2024-03-25T10:13:57;1.30;;;0.63;;
14923;SDS011;7554;43.600;1.480;2024-03-25T10:16:24;2.90;;;0.97;;
14923;SDS011;7554;43.600;1.480;2024-03-25T10:18:50;3.40;;;0.90;;
14923;SDS011;7554;43.600;1.480;2024-03-25T10:21:19;4.73;;;1.00;;
14923;SDS011;7554;43.600;1.480;2024-03-25T10:23:47;2.20;;;0.90;;
14923;SDS011;7554;43.600;1.480;2024-03-25T10:26:26;2.27;;;0.77;;
14923;SDS011;7554;43.600;1.480;2024-03-25T10:29:00;2.67;;;0.90;;
14923;SDS011;7554;43.600;1.480;2024-03-25T10:31:26;2.93;;;0.70;;
14923;SDS011;7554;43.600;1.480;2024-03-25T10:33:53;3.30;;;0.80;;
14923;SDS011;7554;43.600;1.480;2024-03-25T10:36:19;3.10;;;0.67;;
14923;SDS011;7554;43.600;1.480;2024-03-25T10:38:49;2.63;;;0.43;;
14923;SDS011;7554;43.600;1.480;2024-03-25T10:41:19;5.20;;;0.80;;
14923;SDS011;7554;43.600;1.480;2024-03-25T10:43:47;1.53;;;0.60;;
14923;SDS011;7554;43.600;1.480;2024-03-25T10:46:17;3.03;;;0.80;;
14923;SDS011;7554;43.600;1.480;2024-03-25T10:48:48;1.43;;;0.50;;
14923;SDS011;7554;43.600;1.480;2024-03-25T10:51:20;8.03;;;1.07;;
14923;SDS011;7554;43.600;1.480;2024-03-25T10:53:49;2.50;;;1.00;;
14923;SDS011;7554;43.600;1.480;2024-03-25T10:56:19;1.80;;;0.60;;
14923;SDS011;7554;43.600;1.480;2024-03-25T10:58:47;1.67;;;0.77;;
14923;SDS011;7554;43.600;1.480;2024-03-25T11:01:14;6.03;;;0.90;;
14923;SDS011;7554;43.600;1.480;2024-03-25T11:03:43;6.00;;;0.87;;
14923;SDS011;7554;43.600;1.480;2024-03-25T11:06:11;2.23;;;0.80;;
14923;SDS011;7554;43.600;1.480;2024-03-25T11:08:37;1.73;;;0.80;;
14923;SDS011;7554;43.600;1.480;2024-03-25T11:11:05;7.30;;;1.33;;
14923;SDS011;7554;43.600;1.480;2024-03-25T11:13:31;6.13;;;0.90;;
14923;SDS011;7554;43.600;1.480;2024-03-25T11:15:58;4.00;;;0.93;;
14923;SDS011;7554;43.600;1.480;2024-03-25T11:18:24;3.07;;;0.83;;
14923;SDS011;7554;43.600;1.480;2024-03-25T11:21:00;4.83;;;1.43;;
14923;SDS011;7554;43.600;1.480;2024-03-25T11:23:34;4.63;;;0.90;;
14923;SDS011;7554;43.600;1.480;2024-03-25T11:26:01;7.07;;;1.20;;
14923;SDS011;7554;43.600;1.480;2024-03-25T11:28:29;5.70;;;1.00;;
14923;SDS011;7554;43.600;1.480;2024-03-25T11:30:56;6.03;;;1.00;;
14923;SDS011;7554;43.600;1.480;2024-03-25T11:33:22;3.33;;;1.27;;
14923;SDS011;7554;43.600;1.480;2024-03-25T11:35:49;3.10;;;0.87;;
14923;SDS011;7554;43.600;1.480;2024-03-25T11:38:15;1.60;;;0.90;;
14923;SDS011;7554;43.600;1.480;2024-03-25T11:40:42;4.73;;;0.70;;
14923;SDS011;7554;43.600;1.480;2024-03-25T11:43:17;4.13;;;0.93;;
14923;SDS011;7554;43.600;1.480;2024-03-25T11:45:47;2.97;;;1.07;;
14923;SDS011;7554;43.600;1.480;2024-03-25T11:48:14;3.67;;;0.90;;
14923;SDS011;7554;43.600;1.480;2024-03-25T11:50:41;5.60;;;1.10;;
14923;SDS011;7554;43.600;1.480;2024-03-25T11:53:10;4.13;;;1.43;;
14923;SDS011;7554;43.600;1.480;2024-03-25T11:55:38;2.67;;;0.80;;
14923;SDS011;7554;43.600;1.480;2024-03-25T11:58:05;2.97;;;0.93;;
14923;SDS011;7554;43.600;1.480;2024-03-25T12:00:32;3.77;;;0.90;;
14923;SDS011;7554;43.600;1.480;2024-03-25T12:03:00;5.87;;;1.10;;
14923;SDS011;7554;43.600;1.480;2024-03-25T12:05:27;3.40;;;1.30;;
14923;SDS011;7554;43.600;1.480;2024-03-25T12:07:53;4.13;;;1.47;;
14923;SDS011;7554;43.600;1.480;2024-03-25T12:10:19;4.77;;;0.77;;
14923;SDS011;7554;43.600;1.480;2024-03-25T12:13:04;3.07;;;1.00;;
14923;SDS011;7554;43.600;1.480;2024-03-25T12:15:30;6.00;;;1.10;;
14923;SDS011;7554;43.600;1.480;2024-03-25T12:17:57;5.00;;;1.50;;
14923;SDS011;7554;43.600;1.480;2024-03-25T12:20:24;3.77;;;0.87;;
14923;SDS011;7554;43.600;1.480;2024-03-25T12:22:51;3.70;;;1.20;;
14923;SDS011;7554;43.600;1.480;2024-03-25T12:25:18;6.17;;;1.20;;
14923;SDS011;7554;43.600;1.480;2024-03-25T12:27:45;6.93;;;1.90;;
14923;SDS011;7554;43.600;1.480;2024-03-25T12:30:12;4.73;;;1.00;;
14923;SDS011;7554;43.600;1.480;2024-03-25T12:32:39;6.33;;;1.70;;
14923;SDS011;7554;43.600;1.480;2024-03-25T12:35:07;7.70;;;1.30;;
14923;SDS011;7554;43.600;1.480;2024-03-25T12:37:35;4.43;;;1.53;;
14923;SDS011;7554;43.600;1.480;2024-03-25T12:40:02;3.33;;;1.00;;
14923;SDS011;7554;43.600;1.480;2024-03-25T12:42:30;4.40;;;0.97;;
14923;SDS011;7554;43.600;1.480;2024-03-25T12:44:57;5.17;;;1.23;;
14923;SDS011;7554;43.600;1.480;2024-03-25T12:47:23;6.33;;;1.40;;
14923;SDS011;7554;43.600;1.480;2024-03-25T12:49:50;5.67;;;1.17;;
14923;SDS011;7554;43.600;1.480;2024-03-25T12:52:16;2.93;;;1.50;;
14923;SDS011;7554;43.600;1.480;2024-03-25T12:54:44;5.07;;;1.20;;
14923;SDS011;7554;43.600;1.480;2024-03-25T12:57:11;2.60;;;0.70;;
14923;SDS011;7554;43.600;1.480;2024-03-25T12:59:37;4.47;;;0.80;;
14923;SDS011;7554;43.600;1.480;2024-03-25T13:02:03;2.67;;;0.97;;
14923;SDS011;7554;43.600;1.480;2024-03-25T13:04:30;6.67;;;0.80;;
14923;SDS011;7554;43.600;1.480;2024-03-25T13:06:56;8.13;;;1.30;;
14923;SDS011;7554;43.600;1.480;2024-03-25T13:09:22;7.40;;;1.03;;
14923;SDS011;7554;43.600;1.480;2024-03-25T13:11:50;5.77;;;1.10;;
14923;SDS011;7554;43.600;1.480;2024-03-25T13:14:16;3.17;;;1.07;;
14923;SDS011;7554;43.600;1.480;2024-03-25T13:16:42;3.77;;;1.00;;
14923;SDS011;7554;43.600;1.480;2024-03-25T13:19:09;8.23;;;1.30;;
14923;SDS011;7554;43.600;1.480;2024-03-25T13:21:35;4.77;;;1.20;;
14923;SDS011;7554;43.600;1.480;2024-03-25T13:24:01;4.27;;;0.80;;
14923;SDS011;7554;43.600;1.480;2024-03-25T13:26:27;1.40;;;0.60;;
14923;SDS011;7554;43.600;1.480;2024-03-25T13:28:55;5.40;;;0.97;;
14923;SDS011;7554;43.600;1.480;2024-03-25T13:31:21;5.47;;;1.00;;
14923;SDS011;7554;43.600;1.480;2024-03-25T13:33:48;5.63;;;1.27;;
14923;SDS011;7554;43.600;1.480;2024-03-25T13:36:14;4.90;;;1.37;;
14923;SDS011;7554;43.600;1.480;2024-03-25T13:38:40;4.47;;;1.17;;
14923;SDS011;7554;43.600;1.480;2024-03-25T13:41:06;2.60;;;0.60;;
14923;SDS011;7554;43.600;1.480;2024-03-25T13:43:33;3.87;;;0.97;;
14923;SDS011;7554;43.600;1.480;2024-03-25T13:46:00;5.83;;;1.07;;
14923;SDS011;7554;43.600;1.480;2024-03-25T13:48:26;5.83;;;0.87;;
14923;SDS011;7554;43.600;1.480;2024-03-25T13:50:53;7.33;;;1.13;;
14923;SDS011;7554;43.600;1.480;2024-03-25T13:53:19;3.03;;;0.80;;
14923;SDS011;7554;43.600;1.480;2024-03-25T13:55:46;5.73;;;1.07;;
14923;SDS011;7554;43.600;1.480;2024-03-25T13:58:12;4.67;;;1.10;;
14923;SDS011;7554;43.600;1.480;2024-03-25T14:00:38;5.97;;;1.10;;
14923;SDS011;7554;43.600;1.480;2024-03-25T14:03:06;3.70;;;1.20;;
14923;SDS011;7554;43.600;1.480;2024-03-25T14:05:32;2.53;;;0.87;;
14923;SDS011;7554;43.600;1.480;2024-03-25T14:07:59;2.33;;;0.90;;
14923;SDS011;7554;43.600;1.480;2024-03-25T14:10:25;5.60;;;1.10;;
14923;SDS011;7554;43.600;1.480;2024-03-25T14:12:51;3.10;;;1.00;;
14923;SDS011;7554;43.600;1.480;2024-03-25T14:15:18;8.97;;;1.13;;
14923;SDS011;7554;43.600;1.480;2024-03-25T14:17:44;3.77;;;1.13;;
14923;SDS011;7554;43.600;1.480;2024-03-25T14:20:12;6.73;;;1.10;;
14923;SDS011;7554;43.600;1.480;2024-03-25T14:22:38;4.80;;;1.10;;
14923;SDS011;7554;43.600;1.480;2024-03-25T14:25:05;3.77;;;0.80;;
14923;SDS011;7554;43.600;1.480;2024-03-25T14:27:31;2.60;;;1.03;;
14923;SDS011;7554;43.600;1.480;2024-03-25T14:29:58;4.80;;;0.70;;
14923;SDS011;7554;43.600;1.480;2024-03-25T14:32:24;2.43;;;0.80;;
14923;SDS011;7554;43.600;1.480;2024-03-25T14:34:50;8.80;;;1.30;;
14923;SDS011;7554;43.600;1.480;2024-03-25T14:37:18;3.10;;;1.10;;
14923;SDS011;7554;43.600;1.480;2024-03-25T14:39:44;5.13;;;1.00;;
14923;SDS011;7554;43.600;1.480;2024-03-25T14:42:10;6.33;;;1.80;;
14923;SDS011;7554;43.600;1.480;2024-03-25T14:44:37;7.13;;;1.10;;
14923;SDS011;7554;43.600;1.480;2024-03-25T14:47:03;4.30;;;1.40;;
14923;SDS011;7554;43.600;1.480;2024-03-25T14:49:29;4.57;;;0.97;;
14923;SDS011;7554;43.600;1.480;2024-03-25T14:51:56;6.43;;;1.20;;
14923;SDS011;7554;43.600;1.480;2024-03-25T14:54:24;3.83;;;1.27;;
14923;SDS011;7554;43.600;1.480;2024-03-25T14:56:58;3.60;;;0.97;;
14923;SDS011;7554;43.600;1.480;2024-03-25T14:59:25;6.17;;;1.20;;
14923;SDS011;7554;43.600;1.480;2024-03-25T15:01:51;5.27;;;1.07;;